Time;durP1;ratioP1;P1;durP2;ratioP2;P2;SDS_P1;SDS_P2;PMS_P1;PMS_P2;Temp;Humidity;BMP_temperature;BMP_pressure;BME280_temperature;BME280_humidity;BME280_pressure;Samples;Min_cycle;Max_cycle;Signal;HPM_P1;HPM_P2
2020/12/02 00:01:26;;;;;;;376.27;89.82;;;;;;;;;;5134162;27;20366;-75
2020/12/02 00:03:55;;;;;;;374.67;89.68;;;;;;;;;;5134479;27;20748;-76
2020/12/02 00:06:21;;;;;;;370.48;87.93;;;;;;;;;;5134192;27;20743;-75
2020/12/02 00:08:53;;;;;;;359.58;87.72;;;;;;;;;;5134536;27;20361;-75
2020/12/02 00:11:19;;;;;;;;;;;;;;;;;;5116773;27;20375;-75
2020/12/02 00:13:45;;;;;;;;;;;;;;;;;;5136327;27;19939;-75
2020/12/02 00:16:11;;;;;;;;;;;;;;;;;;5135755;27;19914;-75
2020/12/02 00:18:37;;;;;;;;;;;;;;;;;;5135940;27;20368;-74
2020/12/02 00:21:04;;;;;;;;;;;;;;;;;;5135652;27;20315;-75
2020/12/02 00:23:30;;;;;;;;;;;;;;;;;;5135591;27;19911;-74
2020/12/02 00:25:56;;;;;;;;;;;;;;;;;;5135591;27;19994;-75
2020/12/02 00:28:22;;;;;;;389.73;93.20;;;;;;;;;;5132668;27;20391;-75
2020/12/02 00:30:48;;;;;;;392.60;91.82;;;;;;;;;;5133687;27;20353;-75
2020/12/02 00:33:16;;;;;;;392.38;91.15;;;;;;;;;;5115190;27;20718;-74
2020/12/02 00:35:42;;;;;;;387.10;89.63;;;;;;;;;;5133621;27;20415;-74
2020/12/02 00:38:10;;;;;;;379.95;90.00;;;;;;;;;;5133664;27;20792;-75
2020/12/02 00:40:37;;;;;;;377.15;89.65;;;;;;;;;;5133527;27;20350;-75
2020/12/02 00:43:03;;;;;;;367.52;89.13;;;;;;;;;;5133436;27;20404;-75
2020/12/02 00:45:30;;;;;;;360.48;87.75;;;;;;;;;;5133424;27;20379;-75
2020/12/02 00:47:58;;;;;;;354.63;87.45;;;;;;;;;;5133659;27;20426;-75
2020/12/02 00:50:24;;;;;;;353.92;87.53;;;;;;;;;;5133899;27;20400;-75
2020/12/02 00:53:03;;;;;;;375.35;90.13;;;;;;;;;;5133353;27;20365;-75
2020/12/02 00:55:29;;;;;;;382.13;90.75;;;;;;;;;;5133307;27;20357;-75
2020/12/02 00:57:59;;;;;;;381.58;90.40;;;;;;;;;;5133069;27;20447;-75
2020/12/02 01:00:27;;;;;;;377.80;89.40;;;;;;;;;;5133254;27;20448;-75
2020/12/02 01:03:03;;;;;;;381.88;89.30;;;;;;;;;;5132945;27;20412;-75
2020/12/02 01:05:30;;;;;;;390.48;90.65;;;;;;;;;;5133152;28;20456;-75
2020/12/02 01:08:09;;;;;;;390.92;89.97;;;;;;;;;;5133754;28;20361;-75
2020/12/02 01:10:36;;;;;;;380.08;90.85;;;;;;;;;;5133524;28;20440;-75
2020/12/02 01:13:04;;;;;;;351.23;88.38;;;;;;;;;;5133316;28;20361;-75
2020/12/02 01:15:30;;;;;;;354.63;87.67;;;;;;;;;;5133069;28;20461;-75
2020/12/02 01:18:20;;;;;;;373.23;88.47;;;;;;;;;;5132969;28;20357;-75
2020/12/02 01:20:49;;;;;;;386.92;89.88;;;;;;;;;;5133038;28;20364;-75
2020/12/02 01:23:16;;;;;;;387.50;90.90;;;;;;;;;;5132841;28;20377;-75
2020/12/02 01:25:44;;;;;;;383.83;88.60;;;;;;;;;;5133259;28;20722;-75
2020/12/02 01:28:12;;;;;;;380.52;88.15;;;;;;;;;;5133334;28;20821;-75
2020/12/02 01:30:39;;;;;;;378.35;88.80;;;;;;;;;;5133562;28;20357;-75
2020/12/02 01:33:05;;;;;;;373.38;87.68;;;;;;;;;;5132860;28;20850;-75
2020/12/02 01:35:33;;;;;;;366.90;87.90;;;;;;;;;;5132827;28;20356;-75
2020/12/02 01:38:01;;;;;;;360.20;87.35;;;;;;;;;;5133109;28;20372;-75
2020/12/02 01:40:28;;;;;;;356.58;87.35;;;;;;;;;;5132849;28;20847;-75
2020/12/02 01:42:56;;;;;;;356.00;87.00;;;;;;;;;;5114389;28;20405;-75
2020/12/02 01:45:27;;;;;;;353.52;86.35;;;;;;;;;;5132854;28;20361;-75
2020/12/02 01:47:58;;;;;;;358.03;87.00;;;;;;;;;;5132754;28;20372;-75
2020/12/02 01:50:37;;;;;;;365.33;87.82;;;;;;;;;;5133039;28;20361;-75
2020/12/02 01:53:16;;;;;;;366.90;87.43;;;;;;;;;;5132684;28;20373;-75
2020/12/02 01:56:08;;;;;;;366.73;86.60;;;;;;;;;;5133020;28;20354;-75
2020/12/02 01:58:47;;;;;;;362.42;87.40;;;;;;;;;;5128219;28;20369;-75
2020/12/02 02:01:21;;;;;;;367.37;86.80;;;;;;;;;;5132784;28;20915;-76
2020/12/02 02:03:48;;;;;;;365.20;87.45;;;;;;;;;;5132822;28;20437;-75
2020/12/02 02:06:16;;;;;;;370.10;87.82;;;;;;;;;;5132584;28;20361;-75
2020/12/02 02:08:42;;;;;;;371.75;88.30;;;;;;;;;;5132594;27;20388;-75
2020/12/02 02:11:11;;;;;;;370.73;88.28;;;;;;;;;;5136127;27;20887;-75
2020/12/02 02:14:10;;;;;;;369.63;88.37;;;;;;;;;;5136251;27;20365;-75
2020/12/02 02:16:43;;;;;;;365.08;86.90;;;;;;;;;;5080354;27;20477;-75
2020/12/02 02:19:13;;;;;;;369.42;87.63;;;;;;;;;;5136482;27;20424;-75
2020/12/02 02:21:39;;;;;;;366.33;87.88;;;;;;;;;;5136417;27;20715;-75
2020/12/02 02:24:07;;;;;;;371.50;88.20;;;;;;;;;;5136025;27;20750;-75
2020/12/02 02:26:46;;;;;;;372.50;88.05;;;;;;;;;;5136057;27;20356;-75
2020/12/02 02:29:16;;;;;;;375.23;88.97;;;;;;;;;;5135898;27;20376;-76
2020/12/02 02:32:05;;;;;;;374.25;88.88;;;;;;;;;;5135873;27;20354;-75
2020/12/02 02:34:32;;;;;;;370.45;89.15;;;;;;;;;;5088357;27;20373;-75
2020/12/02 02:37:01;;;;;;;367.77;87.68;;;;;;;;;;5136084;27;20372;-75
2020/12/02 02:39:27;;;;;;;371.27;89.30;;;;;;;;;;5135972;27;20887;-75
2020/12/02 02:42:01;;;;;;;370.85;88.05;;;;;;;;;;5134949;27;20389;-75
2020/12/02 02:44:27;;;;;;;373.03;88.80;;;;;;;;;;5135672;27;20735;-75
2020/12/02 02:46:54;;;;;;;368.17;89.10;;;;;;;;;;5135954;27;20381;-75
2020/12/02 02:49:20;;;;;;;361.27;87.03;;;;;;;;;;5135896;27;20365;-75
2020/12/02 02:51:47;;;;;;;369.27;87.70;;;;;;;;;;5135747;27;20712;-75
2020/12/02 02:54:14;;;;;;;372.17;88.45;;;;;;;;;;5135790;27;20431;-75
2020/12/02 02:56:40;;;;;;;375.02;88.35;;;;;;;;;;5135414;27;20885;-75
2020/12/02 02:59:06;;;;;;;372.92;88.05;;;;;;;;;;5135967;27;20361;-75
2020/12/02 03:01:34;;;;;;;376.13;88.45;;;;;;;;;;5135029;27;20855;-75
2020/12/02 03:04:01;;;;;;;376.90;88.60;;;;;;;;;;5135341;27;20886;-75
2020/12/02 03:06:27;;;;;;;373.90;87.50;;;;;;;;;;5135591;27;20356;-75
2020/12/02 03:08:53;;;;;;;373.30;88.00;;;;;;;;;;5116827;27;20377;-75
2020/12/02 03:11:20;;;;;;;378.40;88.37;;;;;;;;;;5135476;27;20421;-75
2020/12/02 03:13:48;;;;;;;380.17;88.17;;;;;;;;;;5135432;27;20369;-75
2020/12/02 03:16:19;;;;;;;382.45;88.07;;;;;;;;;;5135047;27;20361;-75
2020/12/02 03:18:46;;;;;;;384.50;88.85;;;;;;;;;;5135052;27;20767;-74
2020/12/02 03:21:12;;;;;;;;;;;;;;;;;;5136282;27;20385;-75
2020/12/02 03:23:38;;;;;;;;;;;;;;;;;;5136624;27;19911;-75
2020/12/02 03:26:04;;;;;;;;;;;;;;;;;;5136766;27;19910;-75
2020/12/02 03:28:30;;;;;;;;;;;;;;;;;;5136589;27;19997;-75
2020/12/02 03:30:56;;;;;;;;;;;;;;;;;;5136644;27;19903;-76
2020/12/02 03:33:22;;;;;;;;;;;;;;;;;;5136860;27;19907;-75
2020/12/02 03:35:48;;;;;;;;;;;;;;;;;;5136781;27;20295;-75
2020/12/02 03:38:14;;;;;;;;;;;;;;;;;;5136819;27;20268;-75
2020/12/02 03:40:41;;;;;;;;;;;;;;;;;;5137287;27;20221;-75
2020/12/02 03:43:07;;;;;;;;;;;;;;;;;;5117928;27;20348;-75
2020/12/02 03:45:33;;;;;;;;;;;;;;;;;;5136339;27;20433;-75
2020/12/02 03:47:59;;;;;;;;;;;;;;;;;;5136574;27;20340;-75
2020/12/02 03:50:25;;;;;;;;;;;;;;;;;;5136549;27;19904;-74
2020/12/02 03:52:51;;;;;;;;;;;;;;;;;;5136467;27;19904;-75
2020/12/02 03:55:17;;;;;;;;;;;;;;;;;;5136411;27;19904;-75
2020/12/02 03:57:43;;;;;;;;;;;;;;;;;;5136393;27;19903;-75
2020/12/02 04:00:09;;;;;;;;;;;;;;;;;;5117646;27;19903;-75
2020/12/02 04:02:35;;;;;;;;;;;;;;;;;;5135743;27;19922;-75
2020/12/02 04:05:01;;;;;;;368.75;87.03;;;;;;;;;;5134879;27;20397;-75
2020/12/02 04:07:27;;;;;;;362.27;86.95;;;;;;;;;;5134051;27;20361;-75
2020/12/02 04:09:54;;;;;;;367.42;87.50;;;;;;;;;;5133978;27;20377;-75
2020/12/02 04:12:20;;;;;;;367.15;87.45;;;;;;;;;;5133967;27;20357;-75
2020/12/02 04:14:46;;;;;;;367.95;87.95;;;;;;;;;;5133961;27;20361;-75
2020/12/02 04:17:12;;;;;;;365.38;86.82;;;;;;;;;;5133886;27;20353;-75
2020/12/02 04:19:38;;;;;;;366.95;86.80;;;;;;;;;;5133807;27;20365;-75
2020/12/02 04:22:05;;;;;;;367.95;87.60;;;;;;;;;;5133759;27;20381;-75
2020/12/02 04:24:31;;;;;;;368.98;87.40;;;;;;;;;;5133695;27;20417;-75
2020/12/02 04:26:57;;;;;;;368.43;87.73;;;;;;;;;;5133949;27;20699;-75
2020/12/02 04:29:24;;;;;;;374.40;87.60;;;;;;;;;;5133960;27;20834;-75
2020/12/02 04:31:50;;;;;;;376.05;86.95;;;;;;;;;;5133368;27;20377;-75
2020/12/02 04:34:16;;;;;;;380.73;87.90;;;;;;;;;;5133894;27;20711;-75
2020/12/02 04:36:46;;;;;;;377.40;87.43;;;;;;;;;;5115551;27;20764;-75
2020/12/02 04:39:13;;;;;;;381.85;88.93;;;;;;;;;;5133503;27;20374;-75
2020/12/02 04:41:39;;;;;;;382.98;89.07;;;;;;;;;;5133458;27;20379;-75
2020/12/02 04:44:05;;;;;;;379.00;87.60;;;;;;;;;;5134369;27;20691;-75
2020/12/02 04:46:33;;;;;;;380.63;88.00;;;;;;;;;;5133378;27;20357;-76
2020/12/02 04:49:14;;;;;;;380.05;88.10;;;;;;;;;;5133310;27;20370;-75
2020/12/02 04:51:41;;;;;;;380.58;87.78;;;;;;;;;;5133645;27;20357;-76
2020/12/02 04:54:07;;;;;;;379.83;88.00;;;;;;;;;;5133345;27;20365;-75
2020/12/02 04:56:34;;;;;;;380.58;87.63;;;;;;;;;;5133571;27;20401;-75
2020/12/02 04:59:00;;;;;;;379.15;87.90;;;;;;;;;;5133560;27;20415;-76
2020/12/02 05:01:28;;;;;;;380.38;87.93;;;;;;;;;;5133296;27;20409;-76
2020/12/02 05:03:57;;;;;;;376.17;87.47;;;;;;;;;;5133460;27;20389;-75
2020/12/02 05:06:25;;;;;;;379.17;87.75;;;;;;;;;;5133162;28;20349;-76
2020/12/02 05:08:51;;;;;;;378.73;88.63;;;;;;;;;;5132586;28;20460;-75
2020/12/02 05:11:18;;;;;;;377.13;88.20;;;;;;;;;;5131193;28;20349;-75
2020/12/02 05:14:06;;;;;;;375.27;87.43;;;;;;;;;;5133112;28;20361;-75
2020/12/02 05:16:33;;;;;;;375.58;88.13;;;;;;;;;;5133425;28;20439;-75
2020/12/02 05:19:13;;;;;;;374.15;87.35;;;;;;;;;;5133231;28;20372;-76
2020/12/02 05:21:42;;;;;;;374.30;87.93;;;;;;;;;;5133280;28;20354;-74
2020/12/02 05:24:15;;;;;;;373.90;88.07;;;;;;;;;;5132960;28;20460;-74
2020/12/02 05:26:43;;;;;;;373.20;87.67;;;;;;;;;;5132956;28;20361;-73
2020/12/02 05:29:30;;;;;;;369.02;87.63;;;;;;;;;;5132964;28;20361;-72
2020/12/02 05:32:08;;;;;;;366.10;86.70;;;;;;;;;;5132932;28;20396;-72
2020/12/02 05:34:35;;;;;;;367.10;86.45;;;;;;;;;;5133231;28;20385;-72
2020/12/02 05:37:05;;;;;;;366.75;86.95;;;;;;;;;;5133125;28;20846;-73
2020/12/02 05:40:03;;;;;;;368.63;86.97;;;;;;;;;;5133124;28;20345;-72
2020/12/02 05:42:37;;;;;;;368.17;87.28;;;;;;;;;;5077169;28;20512;-74
2020/12/02 05:45:11;;;;;;;370.55;87.30;;;;;;;;;;5135146;27;20364;-72
2020/12/02 05:47:38;;;;;;;368.33;87.82;;;;;;;;;;5137379;27;20345;-72
2020/12/02 05:50:07;;;;;;;371.95;88.10;;;;;;;;;;5137090;27;20703;-73
2020/12/02 05:52:34;;;;;;;372.02;88.22;;;;;;;;;;5137004;27;20846;-73
2020/12/02 05:55:11;;;;;;;374.55;88.50;;;;;;;;;;5136602;27;20408;-72
2020/12/02 05:57:42;;;;;;;373.13;88.65;;;;;;;;;;5136947;27;20356;-73
2020/12/02 06:00:12;;;;;;;374.65;88.72;;;;;;;;;;5136531;27;20369;-75
2020/12/02 06:02:38;;;;;;;373.25;88.80;;;;;;;;;;5136352;27;20491;-73
2020/12/02 06:05:08;;;;;;;372.05;88.50;;;;;;;;;;5136401;27;20410;-75
2020/12/02 06:07:45;;;;;;;374.85;88.28;;;;;;;;;;5136349;27;20361;-75
2020/12/02 06:10:12;;;;;;;374.90;89.00;;;;;;;;;;5136355;27;20367;-74
2020/12/02 06:12:42;;;;;;;376.77;88.55;;;;;;;;;;5136386;27;20376;-74
2020/12/02 06:15:16;;;;;;;376.95;88.35;;;;;;;;;;5136612;27;20382;-74
2020/12/02 06:17:43;;;;;;;377.60;88.43;;;;;;;;;;5136862;27;20365;-73
2020/12/02 06:20:09;;;;;;;377.77;88.45;;;;;;;;;;5136239;27;20403;-73
2020/12/02 06:22:49;;;;;;;377.48;89.43;;;;;;;;;;5136205;27;20435;-74
2020/12/02 06:25:36;;;;;;;377.25;89.00;;;;;;;;;;5136136;27;20357;-74
2020/12/02 06:28:02;;;;;;;375.05;88.05;;;;;;;;;;5119028;27;20368;-74
2020/12/02 06:30:28;;;;;;;374.73;88.07;;;;;;;;;;5135999;27;20421;-74
2020/12/02 06:33:12;;;;;;;376.90;89.63;;;;;;;;;;5136473;27;20741;-74
2020/12/02 06:35:38;;;;;;;376.88;88.70;;;;;;;;;;5135901;27;20839;-74
2020/12/02 06:38:20;;;;;;;376.70;89.15;;;;;;;;;;5135764;27;20361;-72
2020/12/02 06:40:58;;;;;;;377.10;89.45;;;;;;;;;;5135830;27;20440;-72
2020/12/02 06:43:25;;;;;;;378.08;89.10;;;;;;;;;;5135987;27;20428;-74
2020/12/02 06:45:52;;;;;;;379.55;89.22;;;;;;;;;;5135955;27;20440;-74
2020/12/02 06:48:27;;;;;;;380.48;90.25;;;;;;;;;;5135715;27;20357;-75
2020/12/02 06:50:57;;;;;;;377.02;88.63;;;;;;;;;;5135641;27;20353;-73
2020/12/02 06:53:24;;;;;;;375.08;88.35;;;;;;;;;;5135595;27;20365;-72
2020/12/02 06:55:58;;;;;;;376.67;89.10;;;;;;;;;;5135324;27;20361;-73
2020/12/02 06:58:25;;;;;;;378.30;89.20;;;;;;;;;;5137446;27;20357;-73
2020/12/02 07:01:15;;;;;;;377.60;89.60;;;;;;;;;;5135517;27;20464;-73
2020/12/02 07:03:45;;;;;;;373.13;89.45;;;;;;;;;;5135557;27;20401;-73
2020/12/02 07:06:14;;;;;;;372.73;88.68;;;;;;;;;;5137652;27;20361;-73
2020/12/02 07:08:40;;;;;;;371.63;89.00;;;;;;;;;;5143492;27;20369;-73
2020/12/02 07:11:13;;;;;;;373.87;89.87;;;;;;;;;;5139040;27;20384;-73
2020/12/02 07:13:41;;;;;;;373.83;89.00;;;;;;;;;;5136000;27;20452;-73
2020/12/02 07:16:22;;;;;;;374.20;88.93;;;;;;;;;;5135469;27;20496;-72
2020/12/02 07:18:54;;;;;;;374.17;88.93;;;;;;;;;;5116676;27;20368;-72
2020/12/02 07:21:33;;;;;;;371.70;88.60;;;;;;;;;;5136502;27;20385;-73
2020/12/02 07:24:00;;;;;;;375.65;89.93;;;;;;;;;;5135363;27;20750;-73
2020/12/02 07:26:27;;;;;;;372.40;89.22;;;;;;;;;;5135203;27;20439;-73
2020/12/02 07:29:00;;;;;;;371.90;88.93;;;;;;;;;;5134898;27;20361;-73
2020/12/02 07:31:28;;;;;;;372.35;88.70;;;;;;;;;;5135115;27;20365;-72
2020/12/02 07:34:14;;;;;;;372.98;88.70;;;;;;;;;;5134778;27;20364;-74
2020/12/02 07:36:41;;;;;;;370.85;89.78;;;;;;;;;;5134552;27;20361;-74
2020/12/02 07:39:07;;;;;;;;;;;;;;;;;;5134718;27;20369;-76
2020/12/02 07:41:33;;;;;;;370.90;93.13;;;;;;;;;;5134287;27;20353;-72
2020/12/02 07:44:00;;;;;;;299.13;86.80;;;;;;;;;;5133405;27;20389;-73
2020/12/02 07:46:26;;;;;;;267.33;83.10;;;;;;;;;;5134719;27;20381;-72
2020/12/02 07:48:55;;;;;;;304.15;87.82;;;;;;;;;;5135039;27;20831;-73
2020/12/02 07:51:28;;;;;;;343.75;92.93;;;;;;;;;;5134963;27;20421;-71
2020/12/02 07:53:57;;;;;;;369.38;94.22;;;;;;;;;;5134246;27;20357;-72
2020/12/02 07:56:34;;;;;;;375.58;95.28;;;;;;;;;;5134371;27;20723;-72
2020/12/02 07:59:08;;;;;;;367.45;95.78;;;;;;;;;;5134322;27;20406;-73
2020/12/02 08:01:37;;;;;;;331.02;90.95;;;;;;;;;;5134165;27;20919;-73
2020/12/02 08:04:22;;;;;;;337.97;93.53;;;;;;;;;;5134066;27;20480;-73
2020/12/02 08:07:02;;;;;;;340.33;92.70;;;;;;;;;;5133230;27;20467;-72
2020/12/02 08:09:29;;;;;;;306.88;89.05;;;;;;;;;;5134794;27;20349;-70
2020/12/02 08:12:00;;;;;;;302.25;90.80;;;;;;;;;;5134001;27;20352;-72
2020/12/02 08:14:29;;;;;;;321.45;92.63;;;;;;;;;;5134243;27;20357;-76
2020/12/02 08:17:02;;;;;;;301.85;91.40;;;;;;;;;;5134135;27;20454;-76
2020/12/02 08:19:31;;;;;;;0.90;0.90;;;;;;;;;;5134457;27;20375;-75
2020/12/02 08:21:58;;;;;;;1.20;1.20;;;;;;;;;;5135039;27;20027;-74
2020/12/02 08:24:31;;;;;;;1.10;1.10;;;;;;;;;;5132275;27;20369;-74
2020/12/02 08:26:57;;;;;;;1.10;1.10;;;;;;;;;;5133735;27;20440;-75
2020/12/02 08:29:25;;;;;;;1.20;1.20;;;;;;;;;;5135049;27;20019;-72
2020/12/02 08:31:51;;;;;;;;;;;;;;;;;;5135368;27;20484;-71
2020/12/02 08:34:26;;;;;;;1.13;1.13;;;;;;;;;;5134986;27;19911;-72
2020/12/02 08:37:12;;;;;;;251.40;92.22;;;;;;;;;;5134904;27;20427;-73
2020/12/02 08:39:43;;;;;;;1.20;1.20;;;;;;;;;;5135240;27;20453;-72
2020/12/02 08:42:30;;;;;;;1.35;1.30;;;;;;;;;;5134749;27;20492;-75
2020/12/02 08:45:13;;;;;;;277.00;101.15;;;;;;;;;;5134864;27;20027;-72
2020/12/02 08:47:40;;;;;;;1.10;1.10;;;;;;;;;;5133690;27;20733;-72
2020/12/02 08:50:07;;;;;;;296.80;82.72;;;;;;;;;;5134998;27;20023;-72
2020/12/02 08:52:33;;;;;;;142.25;65.95;;;;;;;;;;5132774;27;20356;-73
2020/12/02 08:55:00;;;;;;;;;;;;;;;;;;5133538;27;20345;-73
2020/12/02 08:57:26;;;;;;;;;;;;;;;;;;5135289;27;19903;-73
2020/12/02 08:59:52;;;;;;;;;;;;;;;;;;5135089;27;19907;-72
2020/12/02 09:02:18;;;;;;;;;;;;;;;;;;5134698;27;20323;-72
2020/12/02 09:04:46;;;;;;;;;;;;;;;;;;5134838;27;19903;-68
2020/12/02 09:07:13;;;;;;;1.20;1.20;;;;;;;;;;5134789;28;20318;-71
2020/12/02 09:09:39;;;;;;;1.20;1.20;;;;;;;;;;5134499;28;20023;-71
2020/12/02 09:12:05;;;;;;;1.20;1.20;;;;;;;;;;5134729;28;20102;-70
2020/12/02 09:14:31;;;;;;;1.20;1.20;;;;;;;;;;5134712;28;20535;-70
2020/12/02 09:16:57;;;;;;;1.20;1.20;;;;;;;;;;5134398;28;20035;-76
2020/12/02 09:19:24;;;;;;;250.07;78.73;;;;;;;;;;5137267;27;20102;-69
2020/12/02 09:21:50;;;;;;;;;;;;;;;;;;5120036;27;20891;-71
2020/12/02 09:24:16;;;;;;;;;;;;;;;;;;5139072;27;19908;-71
2020/12/02 09:26:42;;;;;;;;;;;;;;;;;;5139542;27;19911;-70
2020/12/02 09:29:09;;;;;;;68.10;19.00;;;;;;;;;;5139185;27;20284;-72
2020/12/02 09:31:35;;;;;;;;;;;;;;;;;;5138855;27;20026;-78
2020/12/02 09:34:03;;;;;;;1.20;1.20;;;;;;;;;;5138684;27;19910;-71
2020/12/02 09:36:30;;;;;;;1.10;1.10;;;;;;;;;;5138670;27;20427;-78
2020/12/02 09:38:56;;;;;;;1.10;1.10;;;;;;;;;;5138321;27;20023;-71
2020/12/02 09:41:32;;;;;;;1.10;1.10;;;;;;;;;;5138161;27;20031;-71
2020/12/02 09:44:01;;;;;;;1.15;1.15;;;;;;;;;;5138425;27;20511;-72
2020/12/02 09:46:30;;;;;;;10.43;9.50;;;;;;;;;;5139021;27;20106;-70
2020/12/02 09:48:57;;;;;;;277.42;73.53;;;;;;;;;;5138027;27;20031;-70
2020/12/02 09:51:25;;;;;;;174.95;71.72;;;;;;;;;;5136630;27;20357;-75
2020/12/02 09:53:53;;;;;;;1.20;1.20;;;;;;;;;;5137928;27;20524;-70
2020/12/02 09:56:20;;;;;;;42.38;27.55;;;;;;;;;;5137849;27;20031;-70
2020/12/02 09:58:46;;;;;;;4.10;2.90;;;;;;;;;;5136626;27;20413;-71
2020/12/02 10:01:15;;;;;;;366.65;98.20;;;;;;;;;;5137688;27;20461;-70
2020/12/02 10:03:44;;;;;;;392.83;95.78;;;;;;;;;;5136378;27;20874;-71
2020/12/02 10:06:25;;;;;;;132.88;64.50;;;;;;;;;;5137048;27;20396;-76
2020/12/02 10:09:24;;;;;;;268.70;106.28;;;;;;;;;;5136713;27;20699;-71
2020/12/02 10:11:59;;;;;;;0.90;0.90;;;;;;;;;;5080673;27;20735;-72
2020/12/02 10:14:32;;;;;;;1.10;1.10;;;;;;;;;;5138230;27;20056;-71
2020/12/02 10:17:16;;;;;;;1.05;1.05;;;;;;;;;;5138209;27;20480;-71
2020/12/02 10:20:06;;;;;;;1.10;1.10;;;;;;;;;;5137476;27;20035;-71
2020/12/02 10:22:35;;;;;;;1.10;1.10;;;;;;;;;;5137775;27;20039;-70
2020/12/02 10:25:20;;;;;;;1.17;1.17;;;;;;;;;;5138015;27;20019;-71
2020/12/02 10:27:53;;;;;;;1.10;1.10;;;;;;;;;;5137945;27;20024;-70
2020/12/02 10:30:25;;;;;;;1.10;1.10;;;;;;;;;;5118019;27;20027;-71
2020/12/02 10:33:12;;;;;;;1.00;1.00;;;;;;;;;;5137238;27;20028;-71
2020/12/02 10:35:40;;;;;;;1.00;1.00;;;;;;;;;;5137472;27;20034;-71
2020/12/02 10:38:14;;;;;;;0.90;0.90;;;;;;;;;;5137273;27;20031;-69
2020/12/02 10:40:42;;;;;;;1.00;1.00;;;;;;;;;;5136216;27;20023;-71
2020/12/02 10:43:29;;;;;;;1.05;1.05;;;;;;;;;;5137174;27;20405;-74
2020/12/02 10:45:57;;;;;;;1.00;1.00;;;;;;;;;;5136127;27;20027;-71
2020/12/02 10:48:44;;;;;;;0.90;0.90;;;;;;;;;;5136938;27;20034;-73
2020/12/02 10:51:12;;;;;;;1.00;1.00;;;;;;;;;;5137149;27;20026;-70
2020/12/02 10:53:38;;;;;;;;;;;;;;;;;;5136775;27;20083;-70
2020/12/02 10:56:04;;;;;;;150.82;87.88;;;;;;;;;;5135239;27;20470;-70
2020/12/02 10:58:31;;;;;;;194.40;63.57;;;;;;;;;;5135682;27;20361;-71
2020/12/02 11:01:00;;;;;;;23.48;22.10;;;;;;;;;;5136115;27;20359;-73
2020/12/02 11:03:33;;;;;;;192.25;76.68;;;;;;;;;;5135168;27;20754;-71
2020/12/02 11:06:07;;;;;;;1.00;1.00;;;;;;;;;;5136656;27;20023;-71
2020/12/02 11:08:42;;;;;;;1.00;1.00;;;;;;;;;;5136910;27;20031;-70
2020/12/02 11:11:27;;;;;;;1.00;1.00;;;;;;;;;;5134861;27;20095;-69
2020/12/02 11:13:53;;;;;;;1.00;1.00;;;;;;;;;;5136382;27;20043;-69
2020/12/02 11:16:26;;;;;;;1.00;1.00;;;;;;;;;;5136401;27;20114;-68
2020/12/02 11:19:04;;;;;;;1.10;1.10;;;;;;;;;;5135993;27;20051;-69
2020/12/02 11:21:34;;;;;;;1.10;1.10;;;;;;;;;;5136270;27;20062;-75
2020/12/02 11:24:07;;;;;;;1.00;1.00;;;;;;;;;;5136279;27;20032;-69
2020/12/02 11:26:38;;;;;;;0.90;0.90;;;;;;;;;;5135949;27;20056;-77
2020/12/02 11:29:06;;;;;;;0.90;0.90;;;;;;;;;;5136474;27;20030;-67
2020/12/02 11:31:39;;;;;;;1.00;1.00;;;;;;;;;;5136081;27;20066;-66
2020/12/02 11:34:25;;;;;;;0.98;0.98;;;;;;;;;;5136105;27;20160;-67
2020/12/02 11:36:55;;;;;;;0.90;0.90;;;;;;;;;;5136082;27;20027;-67
2020/12/02 11:39:24;;;;;;;0.90;0.90;;;;;;;;;;5136082;27;20106;-67
2020/12/02 11:41:53;;;;;;;0.90;0.90;;;;;;;;;;5135353;27;20027;-66
2020/12/02 11:44:33;;;;;;;0.90;0.90;;;;;;;;;;5136159;27;20027;-77
2020/12/02 11:47:14;;;;;;;0.90;0.90;;;;;;;;;;5135802;27;20023;-67
2020/12/02 11:49:43;;;;;;;332.90;88.00;;;;;;;;;;5135758;27;20351;-76
2020/12/02 11:52:09;;;;;;;;;;;;;;;;;;5125493;27;20362;-67
2020/12/02 11:54:35;;;;;;;;;;;;;;;;;;5127472;27;25106;-74
2020/12/02 11:57:03;;;;;;;424.85;131.10;;;;;;;;;;5132289;27;25141;-68
2020/12/02 11:59:32;;;;;;;452.40;145.35;;;;;;;;;;5132617;27;20361;-67
2020/12/02 12:01:58;;;;;;;471.67;164.63;;;;;;;;;;5129100;27;20378;-69
2020/12/02 12:04:35;;;;;;;458.30;147.13;;;;;;;;;;5130220;27;20905;-65
2020/12/02 12:07:01;;;;;;;;;;;;;;;;;;5125919;27;20361;-77
2020/12/02 12:09:37;;;;;;;462.35;145.70;;;;;;;;;;5132649;27;20384;-66
2020/12/02 12:12:10;;;;;;;452.40;141.27;;;;;;;;;;5131157;27;20348;-67
2020/12/02 12:14:44;;;;;;;461.20;144.20;;;;;;;;;;5132518;27;20428;-68
2020/12/02 12:17:16;;;;;;;456.10;140.40;;;;;;;;;;5129054;27;20357;-68
2020/12/02 12:19:42;;;;;;;;;;;;;;;;;;5127502;27;20717;-68
2020/12/02 12:22:08;;;;;;;;;;;;;;;;;;5130870;27;25129;-68
2020/12/02 12:24:34;;;;;;;;;;;;;;;;;;5125707;27;25113;-66
2020/12/02 12:27:00;;;;;;;;;;;;;;;;;;5128548;27;20358;-79
2020/12/02 12:29:27;;;;;;;453.40;137.20;;;;;;;;;;5125816;27;25080;-68
2020/12/02 12:31:53;;;;;;;;;;;;;;;;;;5131692;27;20367;-69
2020/12/02 12:34:19;;;;;;;;;;;;;;;;;;5121686;27;25058;-68
2020/12/02 12:36:45;;;;;;;;;;;;;;;;;;5132451;27;20360;-74
2020/12/02 12:39:11;;;;;;;;;;;;;;;;;;5128858;27;20360;-66
2020/12/02 12:41:39;;;;;;;478.53;174.03;;;;;;;;;;5132979;27;20376;-66
2020/12/02 12:44:24;;;;;;;477.52;176.25;;;;;;;;;;5131173;27;20882;-66
2020/12/02 12:46:56;;;;;;;495.05;203.13;;;;;;;;;;5133392;27;20376;-66
2020/12/02 12:49:24;;;;;;;502.90;221.98;;;;;;;;;;5133651;27;20359;-66
2020/12/02 12:51:55;;;;;;;499.63;220.80;;;;;;;;;;5132197;27;20365;-66
2020/12/02 12:54:21;;;;;;;491.20;211.20;;;;;;;;;;5112818;27;20376;-74
2020/12/02 12:56:51;;;;;;;507.10;230.70;;;;;;;;;;5133587;27;20365;-67
2020/12/02 12:59:18;;;;;;;499.17;214.50;;;;;;;;;;5133839;27;20352;-66
2020/12/02 13:01:49;;;;;;;468.35;173.90;;;;;;;;;;5132540;27;20754;-66
2020/12/02 13:04:18;;;;;;;487.85;183.45;;;;;;;;;;5132389;27;20763;-74
2020/12/02 13:06:44;;;;;;;475.70;166.25;;;;;;;;;;5133132;27;20361;-66
2020/12/02 13:09:10;;;;;;;;;;;;;;;;;;5128458;28;20364;-66
2020/12/02 13:11:36;;;;;;;;;;;;;;;;;;5127189;28;20851;-66
2020/12/02 13:14:03;;;;;;;;;;;;;;;;;;5120408;28;20376;-66
2020/12/02 13:16:29;;;;;;;;;;;;;;;;;;5117491;28;25069;-66
2020/12/02 13:18:55;;;;;;;;;;;;;;;;;;5118809;28;20372;-69
2020/12/02 13:21:21;;;;;;;;;;;;;;;;;;5118079;28;25067;-73
2020/12/02 13:23:47;;;;;;;;;;;;;;;;;;5117930;28;25476;-77
2020/12/02 13:26:13;;;;;;;;;;;;;;;;;;5120972;28;25071;-67
2020/12/02 13:28:39;;;;;;;;;;;;;;;;;;5125759;28;20416;-72
2020/12/02 13:31:05;;;;;;;;;;;;;;;;;;5125002;28;20394;-66
2020/12/02 13:33:36;;;;;;;450.50;135.95;;;;;;;;;;5125766;28;20352;-66
2020/12/02 13:36:02;;;;;;;;;;;;;;;;;;5127227;28;20385;-65
2020/12/02 13:38:28;;;;;;;;;;;;;;;;;;5125050;28;25201;-65
2020/12/02 13:40:54;;;;;;;;;;;;;;;;;;5130301;28;20386;-66
2020/12/02 13:43:20;;;;;;;;;;;;;;;;;;5129481;28;25100;-67
2020/12/02 13:45:46;;;;;;;;;;;;;;;;;;5122808;28;25163;-72
2020/12/02 13:48:14;;;;;;;;;;;;;;;;;;5116792;28;20212;-67
2020/12/02 13:50:40;;;;;;;;;;;;;;;;;;5117378;28;25101;-74
2020/12/02 13:53:06;;;;;;;;;;;;;;;;;;5117517;28;25080;-72
2020/12/02 13:55:32;;;;;;;;;;;;;;;;;;5124401;28;25102;-67
2020/12/02 13:57:59;;;;;;;;;;;;;;;;;;5125163;28;25070;-67
2020/12/02 14:00:25;;;;;;;;;;;;;;;;;;5125020;28;25095;-68
2020/12/02 14:02:51;;;;;;;;;;;;;;;;;;5123266;28;25074;-74
2020/12/02 14:05:19;;;;;;;;;;;;;;;;;;5128638;27;20378;-73
2020/12/02 14:07:45;;;;;;;;;;;;;;;;;;5130080;27;20839;-67
2020/12/02 14:10:11;;;;;;;;;;;;;;;;;;5110439;27;20399;-73
2020/12/02 14:12:37;;;;;;;;;;;;;;;;;;5107964;27;25125;-70
2020/12/02 14:15:03;;;;;;;;;;;;;;;;;;5128810;27;25102;-73
2020/12/02 14:17:29;;;;;;;;;;;;;;;;;;5126666;27;25131;-73
2020/12/02 14:19:55;;;;;;;;;;;;;;;;;;5133097;27;25069;-74
2020/12/02 14:22:21;;;;;;;;;;;;;;;;;;5118060;27;25092;-74
2020/12/02 14:24:47;;;;;;;;;;;;;;;;;;5133203;27;25073;-73
2020/12/02 14:27:13;;;;;;;;;;;;;;;;;;5134312;27;25069;-67
2020/12/02 14:29:39;;;;;;;457.30;136.30;;;;;;;;;;5131153;27;20496;-73
2020/12/02 14:32:05;;;;;;;;;;;;;;;;;;5132169;27;20356;-67
2020/12/02 14:34:31;;;;;;;;;;;;;;;;;;5128552;27;20374;-67
2020/12/02 14:36:58;;;;;;;;;;;;;;;;;;5131820;27;25078;-67
2020/12/02 14:39:24;;;;;;;;;;;;;;;;;;5127930;27;25181;-73
2020/12/02 14:41:50;;;;;;;;;;;;;;;;;;5128325;27;25142;-67
2020/12/02 14:44:16;;;;;;;;;;;;;;;;;;5132705;27;25137;-67
2020/12/02 14:46:42;;;;;;;;;;;;;;;;;;5134848;27;25125;-66
2020/12/02 14:49:08;;;;;;;;;;;;;;;;;;5134810;27;25076;-65
2020/12/02 14:51:34;;;;;;;;;;;;;;;;;;5126644;27;25109;-67
2020/12/02 14:54:00;;;;;;;;;;;;;;;;;;5135697;27;25054;-75
2020/12/02 14:56:26;;;;;;;;;;;;;;;;;;5135504;27;25121;-75
2020/12/02 14:58:52;;;;;;;;;;;;;;;;;;5132032;27;20395;-67
2020/12/02 15:01:18;;;;;;;;;;;;;;;;;;5126859;27;20392;-69